sensor_id;sensor_type;location;lat;lon;timestamp;temperature;humidity
17053;DHT22;8643;48.824;11.422;2022-07-01T00:00:55;22.70;99.90
17053;DHT22;8643;48.824;11.422;2022-07-01T00:25:46;21.30;99.90
17053;DHT22;8643;48.824;11.422;2022-07-01T00:28:15;21.20;99.90
17053;DHT22;8643;48.824;11.422;2022-07-01T00:30:43;21.00;99.90
17053;DHT22;8643;48.824;11.422;2022-07-01T00:38:11;20.40;99.90
17053;DHT22;8643;48.824;11.422;2022-07-01T00:40:39;20.30;99.90
17053;DHT22;8643;48.824;11.422;2022-07-01T00:48:11;20.20;99.90
17053;DHT22;8643;48.824;11.422;2022-07-01T00:50:40;20.20;99.90
17053;DHT22;8643;48.824;11.422;2022-07-01T00:53:09;20.20;99.90
17053;DHT22;8643;48.824;11.422;2022-07-01T00:58:06;20.40;99.90
17053;DHT22;8643;48.824;11.422;2022-07-01T01:15:39;20.50;99.90
17053;DHT22;8643;48.824;11.422;2022-07-01T01:40:30;20.40;99.90
17053;DHT22;8643;48.824;11.422;2022-07-01T01:47:56;20.10;99.90
17053;DHT22;8643;48.824;11.422;2022-07-01T01:50:24;20.00;99.90
17053;DHT22;8643;48.824;11.422;2022-07-01T01:52:52;19.90;99.90
17053;DHT22;8643;48.824;11.422;2022-07-01T01:57:51;19.20;99.90
17053;DHT22;8643;48.824;11.422;2022-07-01T02:05:17;19.60;99.90
17053;DHT22;8643;48.824;11.422;2022-07-01T02:30:09;19.40;99.90
17053;DHT22;8643;48.824;11.422;2022-07-01T02:47:37;19.40;99.90
17053;DHT22;8643;48.824;11.422;2022-07-01T02:52:38;19.20;99.90
17053;DHT22;8643;48.824;11.422;2022-07-01T02:57:39;19.10;99.90
17053;DHT22;8643;48.824;11.422;2022-07-01T03:02:41;19.10;99.90
17053;DHT22;8643;48.824;11.422;2022-07-01T03:05:09;19.20;99.90
17053;DHT22;8643;48.824;11.422;2022-07-01T03:07:39;19.20;99.90
17053;DHT22;8643;48.824;11.422;2022-07-01T03:12:38;19.10;99.90
17053;DHT22;8643;48.824;11.422;2022-07-01T03:15:08;19.20;99.90
17053;DHT22;8643;48.824;11.422;2022-07-01T03:17:39;18.20;99.90
17053;DHT22;8643;48.824;11.422;2022-07-01T03:22:41;19.20;99.90
17053;DHT22;8643;48.824;11.422;2022-07-01T03:30:13;19.10;99.90
17053;DHT22;8643;48.824;11.422;2022-07-01T03:32:43;19.10;99.90
17053;DHT22;8643;48.824;11.422;2022-07-01T03:52:51;18.90;99.90
17053;DHT22;8643;48.824;11.422;2022-07-01T03:55:42;18.00;99.90
17053;DHT22;8643;48.824;11.422;2022-07-01T04:00:38;19.10;99.90
17053;DHT22;8643;48.824;11.422;2022-07-01T04:15:58;19.20;99.90
17053;DHT22;8643;48.824;11.422;2022-07-01T04:18:29;19.20;99.90
17053;DHT22;8643;48.824;11.422;2022-07-01T04:31:32;19.50;99.90
17053;DHT22;8643;48.824;11.422;2022-07-01T04:34:02;19.20;99.90
17053;DHT22;8643;48.824;11.422;2022-07-01T04:36:31;19.10;99.90
17053;DHT22;8643;48.824;11.422;2022-07-01T04:39:01;18.50;99.90
17053;DHT22;8643;48.824;11.422;2022-07-01T04:49:16;18.90;99.90
17053;DHT22;8643;48.824;11.422;2022-07-01T04:51:44;18.80;99.90
17053;DHT22;8643;48.824;11.422;2022-07-01T04:54:13;18.60;99.90
17053;DHT22;8643;48.824;11.422;2022-07-01T04:59:11;18.50;99.90
17053;DHT22;8643;48.824;11.422;2022-07-01T05:09:10;18.10;99.90
17053;DHT22;8643;48.824;11.422;2022-07-01T05:24:27;18.00;99.90
17053;DHT22;8643;48.824;11.422;2022-07-01T05:26:58;17.80;99.90
17053;DHT22;8643;48.824;11.422;2022-07-01T05:34:25;17.40;99.90
17053;DHT22;8643;48.824;11.422;2022-07-01T05:36:55;17.30;99.90
17053;DHT22;8643;48.824;11.422;2022-07-01T05:39:24;17.10;99.90
17053;DHT22;8643;48.824;11.422;2022-07-01T05:41:53;17.30;99.90
17053;DHT22;8643;48.824;11.422;2022-07-01T05:51:47;17.40;99.90
17053;DHT22;8643;48.824;11.422;2022-07-01T06:01:44;17.40;99.90
17053;DHT22;8643;48.824;11.422;2022-07-01T06:31:32;16.90;99.90
17053;DHT22;8643;48.824;11.422;2022-07-01T06:38:59;16.70;99.90
17053;DHT22;8643;48.824;11.422;2022-07-01T06:48:58;16.40;99.90
17053;DHT22;8643;48.824;11.422;2022-07-01T06:51:26;16.40;99.90
17053;DHT22;8643;48.824;11.422;2022-07-01T07:01:21;16.20;99.90
17053;DHT22;8643;48.824;11.422;2022-07-01T07:21:18;16.80;99.90
17053;DHT22;8643;48.824;11.422;2022-07-01T07:53:33;18.20;99.90
17053;DHT22;8643;48.824;11.422;2022-07-01T07:58:30;18.00;99.90
17053;DHT22;8643;48.824;11.422;2022-07-01T08:08:33;17.60;99.90
17053;DHT22;8643;48.824;11.422;2022-07-01T08:13:30;17.90;99.90
17053;DHT22;8643;48.824;11.422;2022-07-01T08:25:55;17.60;99.90
17053;DHT22;8643;48.824;11.422;2022-07-01T08:35:49;17.50;99.90
17053;DHT22;8643;48.824;11.422;2022-07-01T08:43:22;17.00;99.90
17053;DHT22;8643;48.824;11.422;2022-07-01T08:45:51;16.80;99.90
17053;DHT22;8643;48.824;11.422;2022-07-01T08:53:17;16.90;99.90
17053;DHT22;8643;48.824;11.422;2022-07-01T08:55:46;16.90;99.90
17053;DHT22;8643;48.824;11.422;2022-07-01T09:13:45;16.70;99.90
17053;DHT22;8643;48.824;11.422;2022-07-01T09:16:40;16.60;99.90
17053;DHT22;8643;48.824;11.422;2022-07-01T09:19:10;16.60;99.90
17053;DHT22;8643;48.824;11.422;2022-07-01T09:21:40;16.60;99.90
17053;DHT22;8643;48.824;11.422;2022-07-01T09:24:26;16.70;99.90
17053;DHT22;8643;48.824;11.422;2022-07-01T09:34:33;17.00;99.90
17053;DHT22;8643;48.824;11.422;2022-07-01T09:39:42;17.10;99.90
17053;DHT22;8643;48.824;11.422;2022-07-01T09:42:12;17.10;99.90
17053;DHT22;8643;48.824;11.422;2022-07-01T09:44:53;17.20;99.90
17053;DHT22;8643;48.824;11.422;2022-07-01T09:47:29;17.20;99.90
17053;DHT22;8643;48.824;11.422;2022-07-01T09:52:28;17.70;99.90
17053;DHT22;8643;48.824;11.422;2022-07-01T09:57:33;18.00;99.90
17053;DHT22;8643;48.824;11.422;2022-07-01T10:07:45;17.80;99.90
17053;DHT22;8643;48.824;11.422;2022-07-01T10:10:32;17.80;99.90
17053;DHT22;8643;48.824;11.422;2022-07-01T10:15:44;17.70;99.90
17053;DHT22;8643;48.824;11.422;2022-07-01T10:18:19;17.60;99.90
17053;DHT22;8643;48.824;11.422;2022-07-01T10:20:50;17.40;99.90
17053;DHT22;8643;48.824;11.422;2022-07-01T10:23:21;17.20;99.90
17053;DHT22;8643;48.824;11.422;2022-07-01T10:25:51;17.00;99.90
17053;DHT22;8643;48.824;11.422;2022-07-01T10:28:24;17.00;99.90
17053;DHT22;8643;48.824;11.422;2022-07-01T10:33:39;17.00;99.90
17053;DHT22;8643;48.824;11.422;2022-07-01T10:36:15;16.90;99.90
17053;DHT22;8643;48.824;11.422;2022-07-01T10:39:12;16.80;99.90
17053;DHT22;8643;48.824;11.422;2022-07-01T10:41:59;16.80;99.90
17053;DHT22;8643;48.824;11.422;2022-07-01T10:45:10;16.60;99.90
17053;DHT22;8643;48.824;11.422;2022-07-01T10:47:41;16.20;99.90
17053;DHT22;8643;48.824;11.422;2022-07-01T10:50:11;16.00;99.90
17053;DHT22;8643;48.824;11.422;2022-07-01T10:52:59;15.90;99.90
17053;DHT22;8643;48.824;11.422;2022-07-01T10:55:37;15.90;99.90
17053;DHT22;8643;48.824;11.422;2022-07-01T11:00:41;16.00;99.90
17053;DHT22;8643;48.824;11.422;2022-07-01T11:03:18;16.20;99.90
17053;DHT22;8643;48.824;11.422;2022-07-01T11:05:54;16.40;99.90
17053;DHT22;8643;48.824;11.422;2022-07-01T11:10:59;16.60;99.90
17053;DHT22;8643;48.824;11.422;2022-07-01T11:13:35;16.70;99.90
17053;DHT22;8643;48.824;11.422;2022-07-01T11:16:05;16.60;99.90
17053;DHT22;8643;48.824;11.422;2022-07-01T11:31:32;16.80;99.90
17053;DHT22;8643;48.824;11.422;2022-07-01T11:34:03;16.80;99.90
17053;DHT22;8643;48.824;11.422;2022-07-01T11:41:59;17.00;99.90
17053;DHT22;8643;48.824;11.422;2022-07-01T11:44:35;17.00;99.90
17053;DHT22;8643;48.824;11.422;2022-07-01T11:49:43;17.20;99.90
17053;DHT22;8643;48.824;11.422;2022-07-01T11:52:13;17.30;99.90
17053;DHT22;8643;48.824;11.422;2022-07-01T11:54:45;17.40;99.90
17053;DHT22;8643;48.824;11.422;2022-07-01T12:04:53;17.30;99.90
17053;DHT22;8643;48.824;11.422;2022-07-01T12:07:21;17.30;99.90
17053;DHT22;8643;48.824;11.422;2022-07-01T12:09:51;17.30;99.90
17053;DHT22;8643;48.824;11.422;2022-07-01T12:22:38;16.60;99.90
17053;DHT22;8643;48.824;11.422;2022-07-01T12:25:09;16.20;99.90
17053;DHT22;8643;48.824;11.422;2022-07-01T12:27:41;15.90;99.90
17053;DHT22;8643;48.824;11.422;2022-07-01T12:43:05;15.60;99.90
17053;DHT22;8643;48.824;11.422;2022-07-01T12:53:28;15.60;99.90
17053;DHT22;8643;48.824;11.422;2022-07-01T13:00:58;15.50;99.90
17053;DHT22;8643;48.824;11.422;2022-07-01T13:03:28;15.40;99.90
17053;DHT22;8643;48.824;11.422;2022-07-01T13:11:05;15.20;99.90
17053;DHT22;8643;48.824;11.422;2022-07-01T13:13:35;15.00;99.90
17053;DHT22;8643;48.824;11.422;2022-07-01T13:16:05;14.90;99.90
17053;DHT22;8643;48.824;11.422;2022-07-01T13:18:35;14.80;99.90
17053;DHT22;8643;48.824;11.422;2022-07-01T13:21:06;14.80;99.90
17053;DHT22;8643;48.824;11.422;2022-07-01T13:28:40;14.50;99.90
17053;DHT22;8643;48.824;11.422;2022-07-01T13:36:12;13.10;99.90
17053;DHT22;8643;48.824;11.422;2022-07-01T13:43:42;14.40;99.90
17053;DHT22;8643;48.824;11.422;2022-07-01T13:46:12;14.50;99.90
17053;DHT22;8643;48.824;11.422;2022-07-01T13:51:13;14.60;99.90
17053;DHT22;8643;48.824;11.422;2022-07-01T13:58:41;14.80;99.90
17053;DHT22;8643;48.824;11.422;2022-07-01T14:06:10;15.30;99.90
17053;DHT22;8643;48.824;11.422;2022-07-01T14:08:44;15.30;99.90
17053;DHT22;8643;48.824;11.422;2022-07-01T14:11:15;15.30;99.90
17053;DHT22;8643;48.824;11.422;2022-07-01T14:13:44;15.30;99.90
17053;DHT22;8643;48.824;11.422;2022-07-01T14:18:43;15.20;99.90
17053;DHT22;8643;48.824;11.422;2022-07-01T14:21:14;15.20;99.90
17053;DHT22;8643;48.824;11.422;2022-07-01T14:23:43;15.10;99.90
17053;DHT22;8643;48.824;11.422;2022-07-01T14:26:13;14.90;99.90
17053;DHT22;8643;48.824;11.422;2022-07-01T14:33:39;15.30;99.90
17053;DHT22;8643;48.824;11.422;2022-07-01T14:43:36;14.80;99.90
17053;DHT22;8643;48.824;11.422;2022-07-01T14:56:08;16.10;99.90
17053;DHT22;8643;48.824;11.422;2022-07-01T15:11:27;16.20;99.90
17053;DHT22;8643;48.824;11.422;2022-07-01T15:18:53;17.00;99.90
17053;DHT22;8643;48.824;11.422;2022-07-01T15:21:21;17.80;99.90
17053;DHT22;8643;48.824;11.422;2022-07-01T15:26:20;17.10;99.90
17053;DHT22;8643;48.824;11.422;2022-07-01T15:31:20;17.90;99.90
17053;DHT22;8643;48.824;11.422;2022-07-01T15:36:38;17.10;99.90
17053;DHT22;8643;48.824;11.422;2022-07-01T15:41:35;17.30;99.90
17053;DHT22;8643;48.824;11.422;2022-07-01T15:44:05;16.80;99.90
17053;DHT22;8643;48.824;11.422;2022-07-01T15:46:34;16.70;99.90
17053;DHT22;8643;48.824;11.422;2022-07-01T15:49:03;16.80;99.90
17053;DHT22;8643;48.824;11.422;2022-07-01T15:51:33;16.90;99.90
17053;DHT22;8643;48.824;11.422;2022-07-01T15:54:02;17.00;99.90
17053;DHT22;8643;48.824;11.422;2022-07-01T16:01:32;17.40;99.90
17053;DHT22;8643;48.824;11.422;2022-07-01T16:06:29;18.10;99.90
17053;DHT22;8643;48.824;11.422;2022-07-01T16:09:00;18.80;99.90
17053;DHT22;8643;48.824;11.422;2022-07-01T16:11:30;19.40;99.90
17053;DHT22;8643;48.824;11.422;2022-07-01T16:16:35;18.80;99.90
17053;DHT22;8643;48.824;11.422;2022-07-01T16:21:39;18.40;99.90
17053;DHT22;8643;48.824;11.422;2022-07-01T16:29:11;19.20;99.90
17053;DHT22;8643;48.824;11.422;2022-07-01T16:31:42;19.30;99.90
17053;DHT22;8643;48.824;11.422;2022-07-01T16:36:44;19.70;99.90
17053;DHT22;8643;48.824;11.422;2022-07-01T16:39:20;20.00;99.90
17053;DHT22;8643;48.824;11.422;2022-07-01T16:44:28;19.10;99.90
17053;DHT22;8643;48.824;11.422;2022-07-01T16:47:03;18.50;99.90
17053;DHT22;8643;48.824;11.422;2022-07-01T16:54:39;17.70;99.90
17053;DHT22;8643;48.824;11.422;2022-07-01T16:59:43;17.50;99.90
17053;DHT22;8643;48.824;11.422;2022-07-01T17:04:45;17.40;99.90
17053;DHT22;8643;48.824;11.422;2022-07-01T17:12:15;17.40;99.90
17053;DHT22;8643;48.824;11.422;2022-07-01T17:14:46;17.60;99.90
17053;DHT22;8643;48.824;11.422;2022-07-01T17:30:33;18.20;99.90
17053;DHT22;8643;48.824;11.422;2022-07-01T17:33:12;17.80;99.90
17053;DHT22;8643;48.824;11.422;2022-07-01T17:38:22;17.40;99.90
17053;DHT22;8643;48.824;11.422;2022-07-01T17:41:00;17.30;99.90
17053;DHT22;8643;48.824;11.422;2022-07-01T17:48:36;17.00;99.90
17053;DHT22;8643;48.824;11.422;2022-07-01T17:51:09;16.90;99.90
17053;DHT22;8643;48.824;11.422;2022-07-01T17:53:41;16.80;99.90
17053;DHT22;8643;48.824;11.422;2022-07-01T17:56:13;16.80;99.90
17053;DHT22;8643;48.824;11.422;2022-07-01T17:58:44;16.70;99.90
17053;DHT22;8643;48.824;11.422;2022-07-01T18:01:17;16.60;99.90
17053;DHT22;8643;48.824;11.422;2022-07-01T18:08:55;16.60;99.90
17053;DHT22;8643;48.824;11.422;2022-07-01T18:11:36;16.70;99.90
17053;DHT22;8643;48.824;11.422;2022-07-01T18:14:15;16.70;99.90
17053;DHT22;8643;48.824;11.422;2022-07-01T18:20:05;16.60;99.90
17053;DHT22;8643;48.824;11.422;2022-07-01T18:22:41;16.60;99.90
17053;DHT22;8643;48.824;11.422;2022-07-01T18:25:20;16.50;99.90
17053;DHT22;8643;48.824;11.422;2022-07-01T18:27:53;16.40;99.90
17053;DHT22;8643;48.824;11.422;2022-07-01T18:35:34;16.30;99.90
17053;DHT22;8643;48.824;11.422;2022-07-01T18:38:06;16.30;99.90
17053;DHT22;8643;48.824;11.422;2022-07-01T18:43:08;16.10;99.90
17053;DHT22;8643;48.824;11.422;2022-07-01T18:48:08;16.10;99.90
17053;DHT22;8643;48.824;11.422;2022-07-01T18:53:10;15.90;99.90
17053;DHT22;8643;48.824;11.422;2022-07-01T18:58:10;15.70;99.90
17053;DHT22;8643;48.824;11.422;2022-07-01T19:03:14;13.90;99.90
17053;DHT22;8643;48.824;11.422;2022-07-01T19:10:47;14.80;99.90
17053;DHT22;8643;48.824;11.422;2022-07-01T19:13:17;14.70;99.90
17053;DHT22;8643;48.824;11.422;2022-07-01T19:15:47;14.50;99.90
17053;DHT22;8643;48.824;11.422;2022-07-01T19:18:17;14.30;99.90
17053;DHT22;8643;48.824;11.422;2022-07-01T19:33:15;13.60;99.90
17053;DHT22;8643;48.824;11.422;2022-07-01T19:35:43;13.50;99.90
17053;DHT22;8643;48.824;11.422;2022-07-01T19:38:14;13.50;99.90
17053;DHT22;8643;48.824;11.422;2022-07-01T19:53:06;13.00;99.90
17053;DHT22;8643;48.824;11.422;2022-07-01T19:55:38;12.90;99.90
17053;DHT22;8643;48.824;11.422;2022-07-01T20:13:14;12.60;99.90
17053;DHT22;8643;48.824;11.422;2022-07-01T20:18:23;12.40;99.90
17053;DHT22;8643;48.824;11.422;2022-07-01T20:23:41;12.30;99.90
17053;DHT22;8643;48.824;11.422;2022-07-01T20:28:47;12.20;99.90
17053;DHT22;8643;48.824;11.422;2022-07-01T20:33:47;12.20;99.90
17053;DHT22;8643;48.824;11.422;2022-07-01T20:36:17;12.20;99.90
17053;DHT22;8643;48.824;11.422;2022-07-01T20:54:10;12.10;99.90
17053;DHT22;8643;48.824;11.422;2022-07-01T20:56:49;12.00;99.90
17053;DHT22;8643;48.824;11.422;2022-07-01T20:59:34;12.00;99.90
17053;DHT22;8643;48.824;11.422;2022-07-01T21:02:05;12.00;99.90
17053;DHT22;8643;48.824;11.422;2022-07-01T21:07:42;11.90;99.90
17053;DHT22;8643;48.824;11.422;2022-07-01T21:10:13;11.80;99.90
17053;DHT22;8643;48.824;11.422;2022-07-01T21:15:14;11.80;99.90
17053;DHT22;8643;48.824;11.422;2022-07-01T21:17:45;11.80;99.90
17053;DHT22;8643;48.824;11.422;2022-07-01T21:20:15;11.70;99.90
17053;DHT22;8643;48.824;11.422;2022-07-01T21:25:16;11.90;99.90
17053;DHT22;8643;48.824;11.422;2022-07-01T21:30:15;11.90;99.90
17053;DHT22;8643;48.824;11.422;2022-07-01T21:35:13;11.80;99.90
17053;DHT22;8643;48.824;11.422;2022-07-01T21:42:40;11.50;99.90
17053;DHT22;8643;48.824;11.422;2022-07-01T21:47:39;11.40;99.90
17053;DHT22;8643;48.824;11.422;2022-07-01T21:50:09;11.40;99.90
17053;DHT22;8643;48.824;11.422;2022-07-01T21:55:08;11.40;99.90
17053;DHT22;8643;48.824;11.422;2022-07-01T22:05:15;11.40;99.90
17053;DHT22;8643;48.824;11.422;2022-07-01T22:07:44;11.40;99.90
17053;DHT22;8643;48.824;11.422;2022-07-01T22:10:13;11.40;99.90
17053;DHT22;8643;48.824;11.422;2022-07-01T22:12:43;11.40;99.90
17053;DHT22;8643;48.824;11.422;2022-07-01T22:17:46;11.30;99.90
17053;DHT22;8643;48.824;11.422;2022-07-01T22:22:48;11.20;99.90
17053;DHT22;8643;48.824;11.422;2022-07-01T22:30:15;11.10;99.90
17053;DHT22;8643;48.824;11.422;2022-07-01T22:35:17;11.10;99.90
17053;DHT22;8643;48.824;11.422;2022-07-01T22:40:21;11.10;99.90
17053;DHT22;8643;48.824;11.422;2022-07-01T22:47:57;11.10;99.90
17053;DHT22;8643;48.824;11.422;2022-07-01T22:50:37;11.10;99.90
17053;DHT22;8643;48.824;11.422;2022-07-01T22:53:09;11.10;99.90
17053;DHT22;8643;48.824;11.422;2022-07-01T22:55:48;11.10;99.90
17053;DHT22;8643;48.824;11.422;2022-07-01T22:58:23;11.20;99.90
17053;DHT22;8643;48.824;11.422;2022-07-01T23:01:02;11.20;99.90
17053;DHT22;8643;48.824;11.422;2022-07-01T23:06:09;11.10;99.90
17053;DHT22;8643;48.824;11.422;2022-07-01T23:08:44;11.00;99.90
17053;DHT22;8643;48.824;11.422;2022-07-01T23:11:25;11.10;99.90
17053;DHT22;8643;48.824;11.422;2022-07-01T23:14:01;11.20;99.90
17053;DHT22;8643;48.824;11.422;2022-07-01T23:19:23;11.10;99.90
17053;DHT22;8643;48.824;11.422;2022-07-01T23:21:54;11.10;99.90
17053;DHT22;8643;48.824;11.422;2022-07-01T23:34:25;11.10;99.90
17053;DHT22;8643;48.824;11.422;2022-07-01T23:36:54;11.10;99.90
17053;DHT22;8643;48.824;11.422;2022-07-01T23:39:24;11.00;99.90
17053;DHT22;8643;48.824;11.422;2022-07-01T23:46:50;10.90;99.90
17053;DHT22;8643;48.824;11.422;2022-07-01T23:49:18;10.90;99.90
17053;DHT22;8643;48.824;11.422;2022-07-01T23:51:48;10.90;99.90
